createdAt,value
2023-03-26T00:01:16.030Z,7.44
2023-03-26T00:03:47.087Z,7.36
2023-03-26T00:06:16.629Z,7.30
2023-03-26T00:08:45.727Z,7.26
2023-03-26T00:11:15.985Z,7.19
2023-03-26T00:13:43.987Z,7.12
2023-03-26T00:16:20.549Z,7.04
2023-03-26T00:18:48.918Z,6.92
2023-03-26T00:21:18.178Z,6.83
2023-03-26T00:23:44.723Z,6.77
2023-03-26T00:26:11.361Z,6.69
2023-03-26T00:28:41.683Z,6.61
2023-03-26T00:31:13.819Z,6.57
2023-03-26T00:33:41.804Z,6.56
2023-03-26T00:36:14.719Z,6.58
2023-03-26T00:38:42.981Z,6.57
2023-03-26T00:41:32.550Z,6.59
2023-03-26T00:44:00.016Z,6.60
2023-03-26T00:46:28.259Z,6.65
2023-03-26T00:48:58.723Z,6.65
2023-03-26T00:51:26.500Z,6.62
2023-03-26T00:53:53.066Z,6.64
2023-03-26T00:56:19.655Z,6.70
2023-03-26T00:58:47.994Z,6.74
2023-03-26T01:01:18.777Z,6.79
2023-03-26T01:04:00.730Z,6.84
2023-03-26T01:06:36.061Z,6.88
2023-03-26T01:09:12.709Z,6.96
2023-03-26T01:11:39.277Z,6.99
2023-03-26T01:14:13.061Z,6.99
2023-03-26T01:16:52.854Z,7.03
2023-03-26T01:19:45.442Z,7.05
2023-03-26T01:22:21.328Z,7.07
2023-03-26T01:24:53.283Z,7.08
2023-03-26T01:27:42.216Z,7.11
2023-03-26T01:30:41.573Z,7.10
2023-03-26T01:33:29.922Z,7.04
2023-03-26T01:36:06.069Z,6.90
2023-03-26T01:38:46.813Z,6.76
2023-03-26T01:41:26.643Z,6.69
2023-03-26T01:44:02.149Z,6.64
2023-03-26T01:46:30.436Z,6.59
2023-03-26T01:48:56.957Z,6.58
2023-03-26T01:51:33.942Z,6.58
2023-03-26T01:54:03.965Z,6.58
2023-03-26T01:56:57.060Z,6.60
2023-03-26T01:59:32.643Z,6.74
2023-03-26T02:02:10.008Z,6.79
2023-03-26T02:05:03.141Z,6.81
2023-03-26T02:07:41.598Z,6.83
2023-03-26T02:10:17.530Z,6.87
2023-03-26T02:12:44.711Z,6.91
2023-03-26T02:15:12.535Z,6.87
2023-03-26T02:17:42.435Z,6.85
2023-03-26T02:20:11.179Z,6.84
2023-03-26T02:22:41.780Z,6.81
2023-03-26T02:25:11.122Z,6.88
2023-03-26T02:27:38.925Z,6.99
2023-03-26T02:30:08.230Z,6.93
2023-03-26T02:32:35.310Z,6.92
2023-03-26T02:35:02.291Z,6.89
2023-03-26T02:37:30.771Z,6.90
2023-03-26T02:39:57.299Z,7.01
2023-03-26T02:42:23.814Z,6.97
2023-03-26T02:44:50.379Z,6.87
2023-03-26T02:47:16.926Z,6.74
2023-03-26T02:49:43.933Z,6.64
2023-03-26T02:52:10.519Z,6.70
2023-03-26T02:54:37.310Z,6.59
2023-03-26T02:57:03.953Z,6.53
2023-03-26T02:59:30.751Z,6.52
2023-03-26T03:01:57.302Z,6.50
2023-03-26T03:04:23.819Z,6.49
2023-03-26T03:06:52.964Z,6.48
2023-03-26T03:09:20.166Z,6.44
2023-03-26T03:11:46.689Z,6.36
2023-03-26T03:14:13.239Z,6.37
2023-03-26T03:16:39.861Z,6.36
2023-03-26T03:19:06.507Z,6.32
2023-03-26T03:21:33.028Z,6.29
2023-03-26T03:23:59.771Z,6.27
2023-03-26T03:26:27.716Z,6.24
2023-03-26T03:28:56.550Z,6.18
2023-03-26T03:31:25.117Z,6.22
2023-03-26T03:33:52.061Z,6.25
2023-03-26T03:36:23.988Z,6.18
2023-03-26T03:38:51.217Z,6.22
2023-03-26T03:41:18.596Z,6.23
2023-03-26T03:43:46.296Z,6.21
2023-03-26T03:46:12.810Z,6.36
2023-03-26T03:48:39.404Z,6.41
2023-03-26T03:51:06.416Z,6.28
2023-03-26T03:53:37.323Z,6.16
2023-03-26T03:56:09.993Z,6.05
2023-03-26T03:58:36.668Z,5.97
2023-03-26T04:01:04.398Z,5.96
2023-03-26T04:03:33.585Z,5.88
2023-03-26T04:06:01.576Z,5.86
2023-03-26T04:08:28.234Z,5.77
2023-03-26T04:10:54.805Z,5.72
2023-03-26T04:13:21.614Z,5.68
2023-03-26T04:15:48.326Z,5.62
2023-03-26T04:18:15.615Z,5.61
2023-03-26T04:20:47.541Z,5.62
2023-03-26T04:23:15.612Z,5.61
2023-03-26T04:25:49.501Z,5.62
2023-03-26T04:28:32.573Z,5.57
2023-03-26T04:31:01.182Z,5.56
2023-03-26T04:33:33.211Z,5.57
2023-03-26T04:36:03.900Z,5.51
2023-03-26T04:38:34.238Z,5.47
2023-03-26T04:41:04.006Z,5.44
2023-03-26T04:43:31.414Z,5.44
2023-03-26T04:45:58.318Z,5.39
2023-03-26T04:48:24.962Z,5.37
2023-03-26T04:50:51.547Z,5.40
2023-03-26T04:53:19.940Z,5.42
2023-03-26T04:55:56.141Z,5.45
2023-03-26T04:58:30.078Z,5.46
2023-03-26T05:00:57.377Z,5.45
2023-03-26T05:03:23.956Z,5.46
2023-03-26T05:05:51.513Z,5.42
2023-03-26T05:08:18.044Z,5.43
2023-03-26T05:10:44.526Z,5.41
2023-03-26T05:13:10.994Z,5.43
2023-03-26T05:15:37.480Z,5.46
2023-03-26T05:18:04.178Z,5.49
2023-03-26T05:20:31.222Z,5.50
2023-03-26T05:22:57.804Z,5.53
2023-03-26T05:25:24.304Z,5.57
2023-03-26T05:27:50.901Z,5.59
2023-03-26T05:30:21.298Z,5.62
2023-03-26T05:32:49.734Z,5.68
2023-03-26T05:35:17.655Z,5.75
2023-03-26T05:37:46.079Z,5.84
2023-03-26T05:40:15.779Z,5.93
2023-03-26T05:42:43.119Z,5.99
2023-03-26T05:45:11.776Z,6.04
2023-03-26T05:47:38.462Z,6.11
2023-03-26T05:50:06.611Z,6.19
2023-03-26T05:52:33.658Z,6.27
2023-03-26T05:55:00.229Z,6.37
2023-03-26T05:57:29.857Z,6.54
2023-03-26T05:59:56.440Z,6.63
2023-03-26T06:02:23.743Z,6.64
2023-03-26T06:04:51.036Z,6.65
2023-03-26T06:07:18.612Z,6.71
2023-03-26T06:09:45.754Z,6.77
2023-03-26T06:12:12.529Z,6.84
2023-03-26T06:14:39.344Z,6.93
2023-03-26T06:17:05.811Z,7.04
2023-03-26T06:19:32.303Z,7.23
2023-03-26T06:21:58.819Z,7.37
2023-03-26T06:24:25.430Z,7.56
2023-03-26T06:26:52.613Z,7.68
2023-03-26T06:29:19.265Z,7.87
2023-03-26T06:31:45.879Z,7.93
2023-03-26T06:34:12.416Z,8.05
2023-03-26T06:36:38.923Z,8.17
2023-03-26T06:39:07.782Z,8.23
2023-03-26T06:41:35.293Z,8.43
2023-03-26T06:44:01.900Z,8.69
2023-03-26T06:46:28.791Z,8.69
2023-03-26T06:48:55.385Z,8.84
2023-03-26T06:51:21.909Z,8.83
2023-03-26T06:53:48.403Z,8.78
2023-03-26T06:56:14.947Z,8.60
2023-03-26T06:58:41.453Z,8.65
2023-03-26T07:01:08.035Z,8.59
2023-03-26T07:03:34.606Z,8.45
2023-03-26T07:06:01.112Z,8.54
2023-03-26T07:08:27.995Z,8.52
2023-03-26T07:10:54.664Z,8.59
2023-03-26T07:13:21.307Z,8.56
2023-03-26T07:15:49.351Z,8.62
2023-03-26T07:18:15.873Z,8.56
2023-03-26T07:20:44.834Z,8.50
2023-03-26T07:23:15.470Z,8.54
2023-03-26T07:25:42.508Z,8.65
2023-03-26T07:28:24.556Z,8.44
2023-03-26T07:31:27.285Z,8.39
2023-03-26T07:34:26.336Z,8.42
2023-03-26T07:37:02.151Z,8.41
2023-03-26T07:40:13.804Z,8.56
2023-03-26T07:42:54.634Z,8.62
2023-03-26T07:45:53.414Z,8.72
2023-03-26T07:48:25.585Z,8.95
2023-03-26T07:50:53.252Z,8.97
2023-03-26T07:53:21.224Z,9.04
2023-03-26T07:55:58.001Z,8.99
2023-03-26T07:58:50.919Z,9.13
2023-03-26T08:01:31.533Z,9.32
2023-03-26T08:04:23.690Z,9.50
2023-03-26T08:06:59.520Z,9.56
2023-03-26T08:09:40.391Z,9.72
2023-03-26T08:12:28.656Z,9.64
2023-03-26T08:15:09.634Z,9.59
2023-03-26T08:17:42.848Z,9.98
2023-03-26T08:20:28.375Z,9.91
2023-03-26T08:23:02.320Z,10.10
2023-03-26T08:25:33.112Z,10.18
2023-03-26T08:28:02.585Z,10.58
2023-03-26T08:30:29.164Z,10.73
2023-03-26T08:33:02.429Z,11.12
2023-03-26T08:35:29.096Z,11.27
2023-03-26T08:37:55.839Z,11.44
2023-03-26T08:41:03.909Z,11.68
2023-03-26T08:43:36.436Z,11.99
2023-03-26T08:46:21.487Z,12.08
2023-03-26T08:48:50.779Z,11.98
2023-03-26T08:51:54.430Z,11.52
2023-03-26T08:54:23.897Z,11.52
2023-03-26T08:57:05.629Z,11.43
2023-03-26T09:00:02.453Z,11.14
2023-03-26T09:02:51.217Z,10.98
2023-03-26T09:05:42.256Z,10.96
2023-03-26T09:08:23.845Z,11.25
2023-03-26T09:11:21.331Z,11.34
2023-03-26T09:14:30.229Z,11.52
2023-03-26T09:17:32.618Z,11.63
2023-03-26T09:20:26.912Z,11.52
2023-03-26T09:23:28.021Z,11.36
2023-03-26T09:26:11.624Z,11.24
2023-03-26T09:29:15.568Z,11.09
2023-03-26T09:32:19.498Z,11.19
2023-03-26T09:35:08.054Z,11.23
2023-03-26T09:38:00.756Z,11.34
2023-03-26T09:40:45.265Z,11.31
2023-03-26T09:43:24.116Z,11.24
2023-03-26T09:45:58.328Z,11.09
2023-03-26T09:48:27.580Z,11.03
2023-03-26T09:51:09.378Z,11.25
2023-03-26T09:54:00.242Z,11.43
2023-03-26T09:56:41.326Z,11.81
2023-03-26T09:59:14.186Z,12.21
2023-03-26T10:01:52.631Z,12.48
2023-03-26T10:04:59.646Z,12.19
2023-03-26T10:07:45.074Z,11.98
2023-03-26T10:10:40.964Z,11.43
2023-03-26T10:13:26.149Z,11.44
2023-03-26T10:15:57.177Z,11.42
2023-03-26T10:18:39.312Z,11.41
2023-03-26T10:21:29.785Z,11.52
2023-03-26T10:24:04.114Z,11.59
2023-03-26T10:27:09.253Z,11.46
2023-03-26T10:29:57.317Z,11.11
2023-03-26T10:32:50.300Z,10.97
2023-03-26T10:35:41.667Z,10.73
2023-03-26T10:38:38.647Z,10.61
2023-03-26T10:41:28.037Z,10.38
2023-03-26T10:44:08.704Z,10.25
2023-03-26T10:46:52.578Z,10.21
2023-03-26T10:49:43.869Z,10.08
2023-03-26T10:52:16.303Z,9.93
2023-03-26T10:55:16.602Z,9.97
2023-03-26T10:57:51.225Z,9.86
2023-03-26T11:00:25.283Z,9.85
2023-03-26T11:03:11.549Z,9.83
2023-03-26T11:05:53.051Z,10.02
2023-03-26T11:08:33.853Z,10.09
2023-03-26T11:11:20.868Z,10.11
2023-03-26T11:14:04.875Z,10.26
2023-03-26T11:16:40.241Z,10.16
2023-03-26T11:19:45.032Z,10.01
2023-03-26T11:22:26.383Z,9.98
2023-03-26T11:25:03.308Z,10.05
2023-03-26T11:27:57.154Z,10.06
2023-03-26T11:30:29.683Z,10.02
2023-03-26T11:33:05.756Z,10.10
2023-03-26T11:35:40.562Z,10.10
2023-03-26T11:38:33.507Z,10.16
2023-03-26T11:41:02.870Z,10.23
2023-03-26T11:43:35.754Z,10.38
2023-03-26T11:46:09.912Z,10.41
2023-03-26T11:48:49.043Z,10.46
2023-03-26T11:51:26.548Z,10.56
2023-03-26T11:53:54.533Z,10.63
2023-03-26T11:56:27.743Z,10.71
2023-03-26T11:59:01.427Z,10.52
2023-03-26T12:01:40.829Z,10.44
2023-03-26T12:04:13.996Z,10.35
2023-03-26T12:07:09.036Z,10.08
2023-03-26T12:09:35.542Z,9.68
2023-03-26T12:12:04.431Z,9.43
2023-03-26T12:14:34.742Z,9.16
2023-03-26T12:17:07.392Z,9.06
2023-03-26T12:19:45.428Z,9.17
2023-03-26T12:22:30.098Z,9.28
2023-03-26T12:25:09.469Z,9.32
2023-03-26T12:27:38.007Z,9.54
2023-03-26T12:30:20.665Z,9.48
2023-03-26T12:32:48.846Z,9.56
2023-03-26T12:35:27.071Z,9.71
2023-03-26T12:37:55.690Z,9.68
2023-03-26T12:40:30.667Z,9.81
2023-03-26T12:44:55.430Z,9.91
2023-03-26T12:46:44.204Z,9.94
2023-03-26T12:48:38.059Z,10.11
2023-03-26T12:51:26.466Z,9.95
2023-03-26T12:54:07.010Z,9.53
2023-03-26T12:56:36.465Z,9.25
2023-03-26T12:59:21.792Z,9.19
2023-03-26T13:02:02.134Z,9.24
2023-03-26T13:05:04.935Z,9.33
2023-03-26T13:08:00.338Z,9.25
2023-03-26T13:10:33.409Z,9.65
2023-03-26T13:13:24.754Z,10.51
2023-03-26T13:15:55.031Z,10.91
2023-03-26T13:18:37.489Z,10.71
2023-03-26T13:21:04.073Z,10.74
2023-03-26T13:23:36.205Z,10.95
2023-03-26T13:26:14.434Z,11.14
2023-03-26T13:28:59.723Z,11.19
2023-03-26T13:31:35.430Z,11.07
2023-03-26T13:34:08.024Z,10.74
2023-03-26T13:36:43.538Z,10.90
2023-03-26T13:39:14.978Z,10.69
2023-03-26T13:42:09.260Z,10.66
2023-03-26T13:45:05.308Z,10.66
2023-03-26T13:47:37.396Z,10.81
2023-03-26T13:50:10.329Z,10.84
2023-03-26T13:52:50.907Z,10.76
2023-03-26T13:55:41.907Z,10.79
2023-03-26T13:58:19.276Z,10.82
2023-03-26T14:00:54.450Z,11.02
2023-03-26T14:04:03.869Z,10.89
2023-03-26T14:07:02.604Z,10.99
2023-03-26T14:10:03.606Z,10.73
2023-03-26T14:13:08.324Z,10.58
2023-03-26T14:15:42.436Z,10.49
2023-03-26T14:18:42.418Z,10.39
2023-03-26T14:21:27.631Z,10.37
2023-03-26T14:24:15.430Z,10.35
2023-03-26T14:26:44.855Z,10.39
2023-03-26T14:29:31.390Z,10.43
2023-03-26T14:32:09.720Z,10.36
2023-03-26T14:34:55.817Z,10.39
2023-03-26T14:37:42.813Z,10.28
2023-03-26T14:40:27.238Z,10.19
2023-03-26T14:43:21.425Z,10.16
2023-03-26T14:46:06.107Z,10.22
2023-03-26T14:49:03.031Z,10.32
2023-03-26T14:52:01.159Z,10.40
2023-03-26T14:54:31.447Z,10.44
2023-03-26T14:57:19.529Z,10.48
2023-03-26T15:00:02.781Z,10.53
2023-03-26T15:03:08.001Z,10.60
2023-03-26T15:06:03.741Z,10.57
2023-03-26T15:09:07.499Z,10.44
2023-03-26T15:12:12.141Z,10.20
2023-03-26T15:15:08.761Z,10.07
2023-03-26T15:18:06.182Z,9.91
2023-03-26T15:20:55.499Z,9.75
2023-03-26T15:23:31.084Z,9.65
2023-03-26T15:26:25.020Z,9.51
2023-03-26T15:29:27.139Z,9.28
2023-03-26T15:32:33.749Z,9.14
2023-03-26T15:35:36.392Z,8.88
2023-03-26T15:38:32.313Z,8.78
2023-03-26T15:41:19.958Z,8.74
2023-03-26T15:44:23.876Z,8.75
2023-03-26T15:47:16.072Z,8.70
2023-03-26T15:49:53.912Z,8.82
2023-03-26T15:52:48.968Z,8.67
2023-03-26T15:55:28.306Z,8.56
2023-03-26T15:58:23.793Z,8.43
2023-03-26T16:01:02.714Z,8.42
2023-03-26T16:03:35.860Z,8.33
2023-03-26T16:06:11.594Z,8.25
2023-03-26T16:09:18.152Z,8.21
2023-03-26T16:11:56.988Z,8.12
2023-03-26T16:14:38.123Z,8.13
2023-03-26T16:17:11.827Z,8.06
2023-03-26T16:19:41.034Z,7.95
2023-03-26T16:22:15.178Z,7.93
2023-03-26T16:24:47.626Z,7.88
2023-03-26T16:27:14.099Z,7.85
2023-03-26T16:30:07.019Z,7.77
2023-03-26T16:32:35.496Z,7.77
2023-03-26T16:35:38.510Z,7.78
2023-03-26T16:38:14.730Z,7.74
2023-03-26T16:40:59.970Z,7.69
2023-03-26T16:43:41.031Z,7.66
2023-03-26T16:46:34.425Z,7.61
2023-03-26T16:49:35.438Z,7.59
2023-03-26T16:52:20.462Z,7.59
2023-03-26T16:54:50.059Z,7.59
2023-03-26T16:57:45.656Z,7.60
2023-03-26T17:00:23.492Z,7.61
2023-03-26T17:03:26.848Z,7.58
2023-03-26T17:06:02.208Z,7.54
2023-03-26T17:08:53.319Z,7.51
2023-03-26T17:11:42.651Z,7.50
2023-03-26T17:14:20.118Z,7.44
2023-03-26T17:17:05.473Z,7.38
2023-03-26T17:19:41.877Z,7.35
2023-03-26T17:22:21.420Z,7.43
2023-03-26T17:24:57.107Z,7.49
2023-03-26T17:27:34.078Z,7.43
2023-03-26T17:30:07.534Z,7.42
2023-03-26T17:33:06.427Z,7.25
2023-03-26T17:35:36.963Z,7.19
2023-03-26T17:38:05.325Z,7.16
2023-03-26T17:40:43.913Z,7.27
2023-03-26T17:43:12.473Z,7.29
2023-03-26T17:45:42.083Z,7.31
2023-03-26T17:48:16.953Z,7.27
2023-03-26T17:50:52.340Z,7.25
2023-03-26T17:53:26.145Z,7.30
2023-03-26T17:55:55.440Z,7.30
2023-03-26T17:58:33.733Z,7.35
2023-03-26T18:01:15.781Z,7.43
2023-03-26T18:03:54.421Z,7.42
2023-03-26T18:06:39.072Z,7.47
2023-03-26T18:09:13.779Z,7.44
2023-03-26T18:12:15.733Z,7.41
2023-03-26T18:14:45.196Z,7.36
2023-03-26T18:17:12.105Z,7.35
2023-03-26T18:20:19.399Z,7.34
2023-03-26T18:22:46.242Z,7.35
2023-03-26T18:25:23.537Z,7.33
2023-03-26T18:27:50.075Z,7.36
2023-03-26T18:30:22.711Z,7.35
2023-03-26T18:33:04.427Z,7.33
2023-03-26T18:35:41.726Z,7.33
2023-03-26T18:38:14.976Z,7.36
2023-03-26T18:40:42.406Z,7.33
2023-03-26T18:43:32.493Z,7.31
2023-03-26T18:46:01.380Z,7.29
2023-03-26T18:48:29.077Z,7.26
2023-03-26T18:51:06.005Z,7.25
2023-03-26T18:53:40.089Z,7.27
2023-03-26T18:56:35.275Z,7.28
2023-03-26T18:59:04.489Z,7.33
2023-03-26T19:01:34.306Z,7.37
2023-03-26T19:04:05.359Z,7.40
2023-03-26T19:06:35.806Z,7.38
2023-03-26T19:09:19.686Z,7.46
2023-03-26T19:12:00.398Z,7.50
2023-03-26T19:14:28.619Z,7.49
2023-03-26T19:17:00.564Z,7.55
2023-03-26T19:19:32.624Z,7.49
2023-03-26T19:21:59.986Z,7.40
2023-03-26T19:24:27.449Z,7.39
2023-03-26T19:26:54.223Z,7.35
2023-03-26T19:29:32.769Z,7.25
2023-03-26T19:32:03.621Z,7.21
2023-03-26T19:34:38.621Z,7.14
2023-03-26T19:37:18.805Z,7.08
2023-03-26T19:39:47.582Z,7.04
2023-03-26T19:42:18.658Z,6.95
2023-03-26T19:44:45.685Z,6.97
2023-03-26T19:47:17.416Z,7.07
2023-03-26T19:49:54.788Z,6.99
2023-03-26T19:52:28.511Z,6.88
2023-03-26T19:54:59.646Z,6.81
2023-03-26T19:57:36.446Z,6.77
2023-03-26T20:00:09.186Z,6.74
2023-03-26T20:02:35.816Z,6.70
2023-03-26T20:05:02.480Z,6.67
2023-03-26T20:07:35.246Z,6.63
2023-03-26T20:10:03.108Z,6.59
2023-03-26T20:12:29.789Z,6.56
2023-03-26T20:14:56.770Z,6.56
2023-03-26T20:17:23.236Z,6.54
2023-03-26T20:19:49.773Z,6.48
2023-03-26T20:22:20.610Z,6.49
2023-03-26T20:24:47.793Z,6.45
2023-03-26T20:27:14.876Z,6.46
2023-03-26T20:29:42.301Z,6.44
2023-03-26T20:32:26.426Z,6.43
2023-03-26T20:34:54.093Z,6.46
2023-03-26T20:37:20.656Z,6.41
2023-03-26T20:39:47.190Z,6.40
2023-03-26T20:42:15.418Z,6.41
2023-03-26T20:44:42.714Z,6.38
2023-03-26T20:47:11.467Z,6.41
2023-03-26T20:49:38.157Z,6.37
2023-03-26T20:52:05.087Z,6.36
2023-03-26T20:54:31.658Z,6.38
2023-03-26T20:56:58.224Z,6.29
2023-03-26T20:59:26.872Z,6.26
2023-03-26T21:01:54.939Z,6.18
2023-03-26T21:04:22.407Z,6.16
2023-03-26T21:06:49.043Z,6.13
2023-03-26T21:09:18.979Z,6.13
2023-03-26T21:11:50.427Z,6.14
2023-03-26T21:14:26.988Z,6.26
2023-03-26T21:16:53.857Z,6.18
2023-03-26T21:19:20.669Z,6.14
2023-03-26T21:21:57.218Z,6.09
2023-03-26T21:24:52.956Z,6.03
2023-03-26T21:27:37.837Z,6.02
2023-03-26T21:30:14.286Z,6.04
2023-03-26T21:32:41.657Z,6.04
2023-03-26T21:35:09.112Z,6.07
2023-03-26T21:37:37.143Z,6.10
2023-03-26T21:40:14.103Z,6.12
2023-03-26T21:42:46.117Z,6.15
2023-03-26T21:45:13.595Z,6.14
2023-03-26T21:47:41.425Z,6.17
2023-03-26T21:50:09.019Z,6.17
2023-03-26T21:52:36.069Z,6.16
2023-03-26T21:55:05.252Z,6.21
2023-03-26T21:57:40.132Z,6.21
2023-03-26T22:00:16.045Z,6.23
2023-03-26T22:02:48.076Z,6.22
2023-03-26T22:05:18.419Z,6.21
2023-03-26T22:07:51.033Z,6.26
2023-03-26T22:10:17.900Z,6.19
2023-03-26T22:12:44.482Z,6.15
2023-03-26T22:15:13.819Z,6.14
2023-03-26T22:17:41.968Z,6.15
2023-03-26T22:20:12.984Z,6.12
2023-03-26T22:22:41.505Z,6.12
2023-03-26T22:25:10.366Z,6.11
2023-03-26T22:27:44.145Z,6.10
2023-03-26T22:30:12.949Z,6.10
2023-03-26T22:32:39.945Z,6.12
2023-03-26T22:35:07.148Z,6.11
2023-03-26T22:37:35.562Z,6.10
2023-03-26T22:40:02.212Z,6.07
2023-03-26T22:42:28.755Z,6.07
2023-03-26T22:44:55.362Z,6.09
2023-03-26T22:47:22.462Z,6.12
2023-03-26T22:49:49.025Z,6.07
2023-03-26T22:52:15.662Z,6.06
2023-03-26T22:54:42.233Z,6.05
2023-03-26T22:57:09.014Z,6.02
2023-03-26T22:59:35.618Z,6.01
2023-03-26T23:02:02.189Z,6.02
2023-03-26T23:04:32.194Z,5.99
2023-03-26T23:06:59.097Z,5.99
2023-03-26T23:09:25.798Z,5.95
2023-03-26T23:11:52.274Z,5.96
2023-03-26T23:14:19.110Z,5.99
2023-03-26T23:16:48.425Z,5.98
2023-03-26T23:19:14.951Z,5.97
2023-03-26T23:21:41.426Z,5.92
2023-03-26T23:24:08.202Z,5.92
2023-03-26T23:26:49.678Z,5.88
2023-03-26T23:29:17.393Z,5.87
2023-03-26T23:31:44.038Z,5.84
2023-03-26T23:34:13.417Z,5.80
2023-03-26T23:36:40.872Z,5.82
2023-03-26T23:39:09.217Z,5.79
2023-03-26T23:41:36.740Z,5.80
2023-03-26T23:44:04.055Z,5.82
2023-03-26T23:46:32.999Z,5.82
2023-03-26T23:49:02.341Z,5.82
2023-03-26T23:51:30.375Z,5.80
2023-03-26T23:53:57.205Z,5.80
2023-03-26T23:56:24.065Z,5.78
2023-03-26T23:58:50.640Z,5.77
